Time;durP1;ratioP1;P1;durP2;ratioP2;P2;SDS_P1;SDS_P2;PMS_P1;PMS_P2;Temp;Humidity;BMP_temperature;BMP_pressure;BME280_temperature;BME280_humidity;BME280_pressure;Samples;Min_cycle;Max_cycle;Signal;HPM_P1;HPM_P2
2022/07/26 00:00:53;;;;;;;5.03;3.53;;;;;;;31.24;42.22;96607.78;5093979;28;20024;-29
2022/07/26 00:03:19;;;;;;;4.25;3.80;;;;;;;31.17;41.76;96605.72;5094115;28;20054;-28
2022/07/26 00:05:44;;;;;;;4.30;3.88;;;;;;;31.00;42.47;96598.59;5093895;28;20036;-28
2022/07/26 00:08:10;;;;;;;4.38;3.97;;;;;;;31.01;41.90;96600.09;5093673;28;20028;-28
2022/07/26 00:10:42;;;;;;;4.28;3.80;;;;;;;31.02;42.21;96593.19;5093798;28;20040;-28
2022/07/26 00:13:07;;;;;;;3.80;3.50;;;;;;;31.06;41.87;96590.75;5094076;28;20028;-27
2022/07/26 00:15:33;;;;;;;4.55;4.13;;;;;;;30.99;41.71;96585.16;5093892;28;20020;-28
2022/07/26 00:17:59;;;;;;;4.88;4.43;;;;;;;31.14;41.36;96588.00;5093735;28;20362;-28
2022/07/26 00:20:24;;;;;;;5.88;3.97;;;;;;;31.19;41.54;96584.22;5093683;28;20382;-28
2022/07/26 00:22:50;;;;;;;3.83;3.53;;;;;;;31.11;41.32;96583.50;5093657;28;20053;-28
2022/07/26 00:25:15;;;;;;;4.55;3.60;;;;;;;31.04;40.93;96587.00;5093502;28;20162;-28
2022/07/26 00:27:41;;;;;;;4.70;4.15;;;;;;;31.02;41.03;96579.19;5093642;28;20035;-27
2022/07/26 00:30:08;;;;;;;4.05;3.63;;;;;;;30.98;41.04;96578.06;5093598;28;20028;-28
2022/07/26 00:32:34;;;;;;;3.78;3.47;;;;;;;31.04;40.83;96579.34;5093596;28;20041;-27
2022/07/26 00:35:00;;;;;;;3.75;3.45;;;;;;;31.01;41.03;96576.94;5093464;28;20027;-27
2022/07/26 00:37:25;;;;;;;4.38;4.07;;;;;;;31.00;40.66;96579.00;5093709;28;20032;-28
2022/07/26 00:39:51;;;;;;;4.55;3.90;;;;;;;31.07;40.56;96569.84;5093773;28;20077;-28
2022/07/26 00:42:16;;;;;;;5.65;4.20;;;;;;;31.11;40.20;96568.75;5093448;28;20074;-28
2022/07/26 00:44:43;;;;;;;4.43;3.70;;;;;;;31.07;40.54;96567.03;5093629;28;20020;-28
2022/07/26 00:47:09;;;;;;;5.88;3.90;;;;;;;31.13;40.30;96566.13;5093556;28;20024;-28
2022/07/26 00:49:36;;;;;;;4.50;3.85;;;;;;;31.10;40.14;96564.44;5093451;28;20045;-28
2022/07/26 00:52:04;;;;;;;4.28;3.88;;;;;;;31.04;40.04;96559.00;5093412;28;20103;-28
2022/07/26 00:54:29;;;;;;;4.10;3.70;;;;;;;31.16;39.76;96559.41;5093410;28;20020;-28
2022/07/26 00:56:55;;;;;;;4.10;3.70;;;;;;;31.19;39.12;96552.66;5093337;28;20024;-28
2022/07/26 00:59:21;;;;;;;4.40;4.00;;;;;;;31.06;39.08;96551.53;5093211;28;20066;-28
2022/07/26 01:01:46;;;;;;;4.20;3.80;;;;;;;31.21;38.72;96552.84;5093470;28;20044;-29
2022/07/26 01:04:12;;;;;;;4.15;3.80;;;;;;;31.13;39.00;96549.31;5093215;28;20016;-29
2022/07/26 01:06:37;;;;;;;4.88;3.95;;;;;;;31.05;39.32;96541.63;5093187;28;20080;-28
2022/07/26 01:09:04;;;;;;;6.10;4.40;;;;;;;31.19;39.10;96547.81;5092947;28;20051;-29
2022/07/26 01:11:30;;;;;;;3.88;3.58;;;;;;;31.07;38.93;96541.81;5093211;28;20122;-28
2022/07/26 01:13:56;;;;;;;5.20;3.97;;;;;;;31.06;39.14;96540.34;5093129;28;20034;-28
2022/07/26 01:16:21;;;;;;;4.80;4.30;;;;;;;31.16;38.46;96545.41;5093149;28;20423;-28
2022/07/26 01:18:47;;;;;;;6.80;4.68;;;;;;;31.12;39.37;96539.44;5093082;28;20028;-28
2022/07/26 01:21:12;;;;;;;4.53;4.03;;;;;;;31.10;39.23;96533.63;5095824;28;20028;-27
2022/07/26 01:23:38;;;;;;;4.25;3.83;;;;;;;31.11;38.91;96535.88;5096995;28;20023;-28
2022/07/26 01:26:04;;;;;;;4.10;3.75;;;;;;;31.14;38.64;96534.75;5097072;28;20058;-28
2022/07/26 01:28:33;;;;;;;4.20;3.80;;;;;;;31.18;38.94;96534.38;5096903;28;20055;-28
2022/07/26 01:30:59;;;;;;;4.80;4.03;;;;;;;31.18;38.36;96529.50;5096789;28;20028;-28
2022/07/26 01:33:26;;;;;;;4.47;4.00;;;;;;;31.19;38.74;96528.19;5097197;28;20027;-28
2022/07/26 01:35:52;;;;;;;4.50;4.05;;;;;;;31.14;38.34;96531.22;5096993;28;20031;-28
2022/07/26 01:38:18;;;;;;;6.57;4.78;;;;;;;31.16;38.29;96537.00;5096736;28;20854;-28
2022/07/26 01:40:43;;;;;;;4.40;4.03;;;;;;;31.21;38.41;96539.59;5096590;28;20069;-28
2022/07/26 01:43:09;;;;;;;4.65;4.20;;;;;;;31.14;38.52;96534.03;5096893;28;20020;-28
2022/07/26 01:45:34;;;;;;;4.93;4.20;;;;;;;31.12;38.65;96525.44;5096522;28;20024;-28
2022/07/26 01:48:00;;;;;;;4.25;3.88;;;;;;;31.17;37.81;96527.28;5096962;28;20028;-27
2022/07/26 01:50:25;;;;;;;4.10;3.70;;;;;;;31.14;38.27;96526.38;5096330;28;20098;-28
2022/07/26 01:52:51;;;;;;;7.80;3.92;;;;;;;31.14;38.17;96525.63;5096376;28;20033;-28
2022/07/26 01:55:17;;;;;;;4.28;3.97;;;;;;;31.17;38.67;96521.66;5096439;28;20477;-28
2022/07/26 01:57:46;;;;;;;4.50;4.10;;;;;;;31.16;38.09;96514.59;5095092;28;20378;-28
2022/07/26 02:00:12;;;;;;;4.55;3.72;;;;;;;31.12;38.36;96519.81;5096484;28;20525;-28
2022/07/26 02:02:37;;;;;;;4.28;3.80;;;;;;;31.12;38.27;96514.22;5096576;28;20157;-30
2022/07/26 02:05:04;;;;;;;4.53;3.90;;;;;;;31.11;37.81;96507.13;5096114;28;20099;-27
2022/07/26 02:07:32;;;;;;;4.85;4.10;;;;;;;31.11;37.83;96501.53;5096332;28;20038;-28
2022/07/26 02:09:58;;;;;;;4.45;4.03;;;;;;;31.04;38.22;96494.56;5096056;28;20059;-28
2022/07/26 02:12:24;;;;;;;5.75;4.00;;;;;;;31.10;38.43;96492.38;5096031;28;20016;-28
2022/07/26 02:14:50;;;;;;;4.72;4.03;;;;;;;31.06;37.89;96489.91;5096101;28;20035;-28
2022/07/26 02:17:16;;;;;;;4.30;3.67;;;;;;;31.08;38.47;96486.56;5095899;28;20054;-29
2022/07/26 02:19:41;;;;;;;4.03;3.72;;;;;;;31.06;38.35;96491.97;5096148;28;20056;-28
2022/07/26 02:22:07;;;;;;;4.10;3.63;;;;;;;31.07;37.65;96485.81;5096172;28;20085;-28
2022/07/26 02:24:32;;;;;;;5.07;4.07;;;;;;;31.08;37.88;96484.50;5096063;28;20481;-28
2022/07/26 02:27:00;;;;;;;5.50;4.15;;;;;;;31.10;37.73;96488.81;5095930;28;20530;-28
2022/07/26 02:29:26;;;;;;;4.93;3.90;;;;;;;31.06;38.08;96483.56;5095931;28;20106;-28
2022/07/26 02:31:52;;;;;;;4.43;4.03;;;;;;;31.04;38.18;96483.38;5095542;28;20020;-28
2022/07/26 02:34:18;;;;;;;4.57;4.18;;;;;;;31.05;38.26;96482.81;5095619;28;20035;-28
2022/07/26 02:36:44;;;;;;;5.18;4.00;;;;;;;31.03;37.96;96491.03;5095612;28;20393;-28
2022/07/26 02:39:10;;;;;;;5.13;4.28;;;;;;;30.99;38.28;96485.09;5095587;28;20032;-28
2022/07/26 02:41:36;;;;;;;4.15;3.83;;;;;;;31.01;38.36;96490.13;5095485;28;20016;-28
2022/07/26 02:44:01;;;;;;;4.22;3.92;;;;;;;30.97;37.93;96490.50;5095492;28;20031;-28
2022/07/26 02:46:27;;;;;;;4.63;4.10;;;;;;;30.98;38.30;96483.59;5095542;28;20462;-28
2022/07/26 02:48:52;;;;;;;4.78;4.18;;;;;;;30.98;37.89;96478.00;5095194;28;20020;-28
2022/07/26 02:51:18;;;;;;;4.30;3.92;;;;;;;31.03;37.76;96481.91;5095233;28;20056;-28
2022/07/26 02:53:43;;;;;;;4.20;3.90;;;;;;;31.00;37.61;96472.56;5095263;28;20020;-28
2022/07/26 02:56:09;;;;;;;6.35;4.53;;;;;;;30.99;38.02;96473.88;5095199;28;20103;-28
2022/07/26 02:58:35;;;;;;;4.53;4.13;;;;;;;31.01;37.56;96476.88;5095433;28;20331;-28
2022/07/26 03:01:01;;;;;;;4.38;3.97;;;;;;;31.01;38.03;96470.53;5095260;28;20420;-28
2022/07/26 03:03:26;;;;;;;4.30;3.90;;;;;;;30.99;37.68;96471.06;5095004;28;20072;-28
2022/07/26 03:05:52;;;;;;;5.30;3.97;;;;;;;30.98;38.07;96463.97;5094993;28;20032;-28
2022/07/26 03:08:17;;;;;;;5.05;4.35;;;;;;;30.95;37.40;96462.31;5095158;28;20023;-28
2022/07/26 03:10:43;;;;;;;4.32;3.92;;;;;;;30.92;37.49;96466.22;5094718;28;20054;-28
2022/07/26 03:13:09;;;;;;;4.60;3.60;;;;;;;30.98;37.65;96463.25;5095147;28;20080;-28
2022/07/26 03:15:34;;;;;;;4.70;4.20;;;;;;;30.93;37.33;96464.16;5094784;28;20039;-28
2022/07/26 03:18:00;;;;;;;4.40;4.00;;;;;;;30.97;37.24;96465.28;5094877;28;20020;-28
2022/07/26 03:20:25;;;;;;;5.53;4.20;;;;;;;30.89;37.17;96464.56;5094782;28;20034;-28
2022/07/26 03:22:51;;;;;;;4.38;3.97;;;;;;;30.90;37.69;96460.47;5094924;28;20099;-28
2022/07/26 03:25:16;;;;;;;5.15;3.97;;;;;;;30.90;37.34;96463.25;5094589;28;20024;-28
2022/07/26 03:27:42;;;;;;;4.20;3.78;;;;;;;30.92;37.36;96462.66;5094711;28;20027;-27
2022/07/26 03:30:08;;;;;;;4.13;3.83;;;;;;;30.91;37.19;96464.72;5094486;28;20028;-28
2022/07/26 03:32:34;;;;;;;4.32;3.92;;;;;;;30.86;37.24;96459.34;5094457;28;20046;-28
2022/07/26 03:34:59;;;;;;;4.40;4.00;;;;;;;30.86;36.81;96470.53;5094433;28;20035;-28
2022/07/26 03:37:25;;;;;;;4.30;3.90;;;;;;;30.87;36.93;96455.97;5094509;28;20028;-28
2022/07/26 03:39:50;;;;;;;4.35;3.95;;;;;;;30.83;37.37;96466.81;5094408;28;20108;-28
2022/07/26 03:42:16;;;;;;;5.38;4.05;;;;;;;30.83;37.21;96466.81;5094298;28;20470;-27
2022/07/26 03:44:42;;;;;;;4.53;4.10;;;;;;;30.88;37.01;96460.28;5094014;28;20026;-28
2022/07/26 03:47:07;;;;;;;4.38;3.97;;;;;;;30.83;36.85;96463.25;5094237;28;20054;-29
2022/07/26 03:49:33;;;;;;;4.15;3.75;;;;;;;30.85;37.30;96467.00;5094131;28;20024;-28
2022/07/26 03:51:58;;;;;;;4.22;3.83;;;;;;;30.82;36.60;96462.50;5094177;28;20073;-28
2022/07/26 03:54:24;;;;;;;4.40;4.10;;;;;;;30.80;36.68;96456.72;5094172;28;20413;-29
2022/07/26 03:56:50;;;;;;;4.75;4.25;;;;;;;30.80;36.26;96467.91;5094018;28;20519;-28
2022/07/26 03:59:17;;;;;;;5.10;3.85;;;;;;;30.85;36.84;96458.59;5094242;28;20016;-28
2022/07/26 04:01:43;;;;;;;4.47;3.75;;;;;;;30.84;36.47;96465.50;5094091;28;20039;-30
2022/07/26 04:04:11;;;;;;;4.55;4.15;;;;;;;30.84;36.72;96461.94;5094144;28;20035;-28
2022/07/26 04:06:37;;;;;;;4.78;4.38;;;;;;;30.80;36.45;96465.13;5094267;28;20115;-28
2022/07/26 04:09:04;;;;;;;5.05;3.78;;;;;;;30.79;36.45;96455.22;5093731;28;20083;-28
2022/07/26 04:11:30;;;;;;;4.03;3.63;;;;;;;30.76;36.26;96461.97;5093773;28;20020;-27
2022/07/26 04:13:56;;;;;;;4.28;3.88;;;;;;;30.73;36.34;96456.75;5093977;28;20024;-28
2022/07/26 04:16:23;;;;;;;7.03;4.35;;;;;;;30.80;36.77;96462.31;5093808;28;20088;-28
2022/07/26 04:18:48;;;;;;;4.10;3.80;;;;;;;30.76;36.41;96461.22;5093508;28;20035;-28
2022/07/26 04:21:14;;;;;;;4.85;3.80;;;;;;;30.75;36.44;96454.13;5093823;28;20484;-28
2022/07/26 04:23:39;;;;;;;5.75;4.20;;;;;;;30.78;36.69;96455.81;5093729;28;20028;-27
2022/07/26 04:26:05;;;;;;;5.78;3.67;;;;;;;30.70;35.97;96453.00;5093694;28;20081;-28
2022/07/26 04:28:31;;;;;;;4.45;4.05;;;;;;;30.72;36.67;96461.59;5093521;28;20040;-28
2022/07/26 04:30:58;;;;;;;6.65;3.92;;;;;;;30.75;36.45;96465.34;5093842;28;20431;-27
2022/07/26 04:33:23;;;;;;;6.53;4.32;;;;;;;30.73;36.59;96465.88;5093428;28;20055;-27
2022/07/26 04:35:49;;;;;;;5.25;3.92;;;;;;;30.68;36.49;96464.75;5093474;28;20062;-28
2022/07/26 04:38:15;;;;;;;4.72;4.00;;;;;;;30.71;35.94;96468.50;5093817;28;20028;-28
2022/07/26 04:40:40;;;;;;;4.53;4.13;;;;;;;30.70;36.55;96464.94;5072334;28;20437;-28
2022/07/26 04:43:06;;;;;;;5.50;4.07;;;;;;;30.71;36.43;96466.44;5071478;28;20020;-28
2022/07/26 04:45:31;;;;;;;5.03;3.70;;;;;;;30.70;36.26;96469.81;5071276;28;20032;-28
2022/07/26 04:47:57;;;;;;;5.47;4.47;;;;;;;30.67;36.79;96465.31;5071416;28;20051;-28
2022/07/26 04:50:23;;;;;;;8.10;4.95;;;;;;;30.66;36.51;96477.84;5071357;28;20024;-28
2022/07/26 04:52:50;;;;;;;7.47;4.00;;;;;;;30.72;36.60;96470.00;5071051;28;20032;-28
2022/07/26 04:55:16;;;;;;;6.20;3.97;;;;;;;30.66;36.14;96469.44;5072461;28;20030;-28
2022/07/26 04:57:42;;;;;;;5.75;4.00;;;;;;;30.68;36.64;96473.16;5073547;28;20493;-27
2022/07/26 05:00:11;;;;;;;4.90;3.88;;;;;;;30.66;36.17;96472.25;5075279;28;20024;-30
2022/07/26 05:02:37;;;;;;;4.25;3.83;;;;;;;30.67;36.27;96471.66;5075025;28;20024;-28
2022/07/26 05:05:04;;;;;;;4.85;4.00;;;;;;;30.18;36.30;96469.19;5075212;28;20422;-25
2022/07/26 05:07:43;;;;;;;7.22;3.53;;;;;;;29.33;35.35;96469.44;5074313;28;20028;-24
2022/07/26 05:10:09;;;;;;;6.30;3.63;;;;;;;29.54;34.89;96464.56;5073908;28;20053;-30
2022/07/26 05:12:35;;;;;;;5.15;4.00;;;;;;;30.02;34.57;96470.50;5073954;28;20028;-28
2022/07/26 05:15:03;;;;;;;4.28;3.65;;;;;;;30.29;34.76;96477.22;5090031;28;20028;-28
2022/07/26 05:17:29;;;;;;;4.57;3.80;;;;;;;30.36;34.55;96482.09;5074937;28;20032;-28
2022/07/26 05:19:54;;;;;;;3.90;3.50;;;;;;;30.40;34.37;96480.97;5074935;28;20025;-28
2022/07/26 05:22:19;;;;;;;4.30;3.88;;;;;;;30.45;34.63;96477.25;5074825;28;20463;-27
2022/07/26 05:24:45;;;;;;;5.60;3.72;;;;;;;30.50;35.08;96476.31;5074778;28;20075;-27
2022/07/26 05:27:10;;;;;;;4.60;3.40;;;;;;;30.52;35.04;96471.66;5074464;28;20033;-28
2022/07/26 05:29:36;;;;;;;4.55;3.80;;;;;;;30.51;35.14;96481.34;5074731;28;20029;-28
2022/07/26 05:32:02;;;;;;;4.45;3.80;;;;;;;30.54;35.10;96485.13;5074683;28;20032;-28
2022/07/26 05:34:27;;;;;;;5.05;3.88;;;;;;;30.51;35.08;96486.22;5074552;28;20021;-28
2022/07/26 05:36:53;;;;;;;3.70;3.40;;;;;;;30.51;35.11;96480.63;5074353;28;20028;-28
2022/07/26 05:39:18;;;;;;;4.35;3.95;;;;;;;30.60;34.75;96485.69;5074257;28;20478;-28
2022/07/26 05:41:44;;;;;;;4.30;3.90;;;;;;;30.57;35.14;96486.78;5074549;28;20476;-28
2022/07/26 05:44:09;;;;;;;4.63;3.75;;;;;;;30.56;35.29;96488.09;5072843;28;20020;-29
2022/07/26 05:46:38;;;;;;;4.75;3.72;;;;;;;30.54;34.85;96488.66;5074323;28;20024;-28
2022/07/26 05:49:04;;;;;;;6.85;4.05;;;;;;;30.53;34.90;96486.41;5074306;28;20036;-29
2022/07/26 05:51:30;;;;;;;5.93;3.53;;;;;;;30.58;34.79;96483.44;5073926;28;20037;-28
2022/07/26 05:53:56;;;;;;;5.65;3.80;;;;;;;30.55;35.06;96486.59;5074237;28;20032;-28
2022/07/26 05:56:21;;;;;;;6.53;3.97;;;;;;;30.51;35.08;96481.34;5074217;28;20382;-28
2022/07/26 05:58:53;;;;;;;5.57;3.63;;;;;;;30.60;35.46;96482.88;5072652;28;20028;-28
2022/07/26 06:01:18;;;;;;;4.55;3.78;;;;;;;30.54;35.17;96485.13;5074368;28;20051;-28
2022/07/26 06:03:44;;;;;;;4.90;3.58;;;;;;;30.57;34.99;96492.38;5073936;28;20478;-28
2022/07/26 06:06:10;;;;;;;6.70;4.10;;;;;;;30.58;35.49;96488.28;5073594;28;20497;-28
2022/07/26 06:08:36;;;;;;;5.00;3.90;;;;;;;30.60;35.08;96494.06;5073824;28;20024;-28
2022/07/26 06:11:02;;;;;;;4.05;3.63;;;;;;;30.57;35.75;96489.59;5073893;28;20037;-28
2022/07/26 06:13:27;;;;;;;5.10;3.88;;;;;;;30.51;35.31;96489.00;5073968;28;20035;-28
2022/07/26 06:15:53;;;;;;;4.80;4.28;;;;;;;30.54;35.59;96491.44;5073552;28;20379;-27
2022/07/26 06:18:18;;;;;;;4.88;4.47;;;;;;;30.52;35.16;96491.25;5073698;28;20029;-28
2022/07/26 06:20:46;;;;;;;5.97;4.13;;;;;;;30.53;35.85;96492.00;5073915;28;20433;-29
2022/07/26 06:23:12;;;;;;;6.45;4.10;;;;;;;30.57;35.38;96486.78;5073938;28;20104;-28
2022/07/26 06:25:37;;;;;;;5.05;4.05;;;;;;;30.60;35.85;96494.06;5084230;28;20094;-28
2022/07/26 06:28:05;;;;;;;4.35;3.58;;;;;;;30.61;35.42;96490.72;5095956;28;20032;-28
2022/07/26 06:30:30;;;;;;;4.43;4.03;;;;;;;30.57;35.51;96489.59;5094793;28;21395;-29
2022/07/26 06:32:56;;;;;;;6.82;3.80;;;;;;;30.53;35.36;96484.38;5095662;28;20080;-27
2022/07/26 06:35:23;;;;;;;5.75;3.95;;;;;;;30.59;35.97;96500.97;5095661;28;20060;-28
2022/07/26 06:37:49;;;;;;;4.72;4.30;;;;;;;30.57;35.49;96497.97;5095367;28;20050;-27
2022/07/26 06:40:14;;;;;;;5.45;4.15;;;;;;;30.06;36.17;96498.06;5095323;28;20032;-28
2022/07/26 06:42:39;;;;;;;6.28;4.05;;;;;;;30.25;35.73;96496.44;5095363;28;20378;-28
2022/07/26 06:45:06;;;;;;;5.25;3.90;;;;;;;30.41;36.00;96499.28;5094701;28;20023;-28
2022/07/26 06:47:31;;;;;;;6.28;3.88;;;;;;;30.54;35.51;96501.91;5095060;28;20451;-27
2022/07/26 06:49:57;;;;;;;7.85;3.90;;;;;;;30.52;35.75;96496.09;5095190;28;20024;-27
2022/07/26 06:52:22;;;;;;;5.95;4.20;;;;;;;30.50;36.13;96502.25;5095243;28;20028;-29
2022/07/26 06:54:48;;;;;;;4.25;3.70;;;;;;;30.59;35.43;96500.97;5095308;28;20371;-28
2022/07/26 06:57:13;;;;;;;4.47;4.07;;;;;;;30.56;35.82;96504.88;5095387;28;20102;-27
2022/07/26 06:59:39;;;;;;;4.20;3.80;;;;;;;30.56;35.49;96504.88;5095340;28;20031;-28
2022/07/26 07:02:04;;;;;;;4.68;4.20;;;;;;;30.52;35.85;96508.03;5095365;28;20123;-28
2022/07/26 07:04:32;;;;;;;4.72;3.55;;;;;;;30.54;35.69;96513.13;5095290;28;20024;-28
2022/07/26 07:07:03;;;;;;;5.05;3.88;;;;;;;30.52;35.85;96501.69;5094943;28;20031;-28
2022/07/26 07:09:29;;;;;;;4.57;4.18;;;;;;;30.52;35.70;96504.50;5094754;28;20044;-28
2022/07/26 07:11:55;;;;;;;5.10;3.95;;;;;;;30.48;35.49;96504.13;5094902;28;20028;-28
2022/07/26 07:14:20;;;;;;;4.10;3.72;;;;;;;30.50;35.92;96507.09;5094885;28;20103;-28
2022/07/26 07:16:46;;;;;;;5.38;4.10;;;;;;;30.54;35.78;96502.63;5094862;28;20055;-28
2022/07/26 07:19:11;;;;;;;4.93;4.03;;;;;;;30.54;35.78;96507.53;5093680;28;20035;-28
2022/07/26 07:21:38;;;;;;;6.45;3.95;;;;;;;30.49;35.46;96511.22;5095099;28;20012;-28
2022/07/26 07:24:04;;;;;;;4.20;3.90;;;;;;;30.55;35.85;96503.38;5094952;28;20020;-28
2022/07/26 07:26:29;;;;;;;4.75;4.15;;;;;;;30.58;35.40;96507.88;5094779;28;20476;-28
2022/07/26 07:28:55;;;;;;;4.28;3.88;;;;;;;30.54;35.43;96507.53;5094656;28;20030;-28
2022/07/26 07:31:21;;;;;;;5.80;4.00;;;;;;;30.37;36.13;96505.22;5094922;28;20027;-28
2022/07/26 07:33:46;;;;;;;4.30;3.90;;;;;;;30.40;36.07;96506.16;5094604;28;20024;-28
2022/07/26 07:36:11;;;;;;;5.22;3.97;;;;;;;30.47;35.31;96508.97;5094551;28;20103;-28
2022/07/26 07:38:37;;;;;;;4.25;3.90;;;;;;;30.35;35.87;96499.44;5094259;28;20028;-28
2022/07/26 07:41:02;;;;;;;6.72;4.70;;;;;;;30.21;35.82;96501.66;5093284;28;20020;-27
2022/07/26 07:43:28;;;;;;;4.65;4.22;;;;;;;30.31;35.39;96502.59;5094365;28;20036;-30
2022/07/26 07:45:53;;;;;;;4.82;4.22;;;;;;;30.30;34.75;96494.75;5094553;28;20032;-27
2022/07/26 07:48:19;;;;;;;5.05;4.07;;;;;;;30.18;35.47;96499.22;5094222;28;20478;-27
2022/07/26 07:50:44;;;;;;;5.22;4.10;;;;;;;30.26;35.01;96494.41;5094510;28;20032;-29
2022/07/26 07:53:10;;;;;;;5.00;3.83;;;;;;;30.30;35.53;96495.50;5094023;28;20024;-27
2022/07/26 07:55:35;;;;;;;4.75;4.00;;;;;;;30.22;35.57;96494.75;5091099;28;20065;-28
2022/07/26 07:58:01;;;;;;;4.03;3.65;;;;;;;30.36;35.49;96493.28;5080991;28;20024;-29
2022/07/26 08:00:26;;;;;;;4.40;4.00;;;;;;;30.45;35.55;96496.81;5092806;28;20119;-28
2022/07/26 08:02:52;;;;;;;4.93;4.00;;;;;;;30.34;35.40;96500.75;5094431;28;20146;-28
2022/07/26 08:05:17;;;;;;;4.28;3.60;;;;;;;29.97;35.73;96500.13;5094160;28;20028;-28
2022/07/26 08:07:43;;;;;;;5.07;3.95;;;;;;;30.02;35.81;96500.50;5093997;28;20150;-28
2022/07/26 08:10:09;;;;;;;4.43;4.00;;;;;;;30.05;35.92;96508.50;5093825;28;20052;-27
2022/07/26 08:12:35;;;;;;;5.32;3.90;;;;;;;30.24;35.64;96503.34;5093843;28;20523;-28
2022/07/26 08:15:01;;;;;;;5.93;3.63;;;;;;;30.12;36.08;96512.63;5093877;28;20095;-27
2022/07/26 08:17:26;;;;;;;5.25;4.20;;;;;;;30.28;35.77;96503.72;5093816;28;20039;-28
2022/07/26 08:19:52;;;;;;;4.03;3.63;;;;;;;30.28;35.51;96502.97;5094023;28;20510;-28
2022/07/26 08:22:17;;;;;;;4.97;3.97;;;;;;;30.13;36.06;96508.53;5093852;28;20039;-28
2022/07/26 08:24:45;;;;;;;4.32;3.92;;;;;;;30.26;35.89;96506.34;5093786;28;20027;-28
2022/07/26 08:27:11;;;;;;;4.78;4.00;;;;;;;30.28;35.44;96511.38;5093547;28;20031;-28
2022/07/26 08:29:37;;;;;;;4.35;3.95;;;;;;;30.24;36.07;96513.78;5093547;28;20430;-28
2022/07/26 08:32:03;;;;;;;7.53;3.92;;;;;;;30.21;35.96;96518.44;5093884;28;20053;-28
2022/07/26 08:34:28;;;;;;;4.95;3.85;;;;;;;30.14;36.10;96512.84;5093635;28;20054;-28
2022/07/26 08:36:54;;;;;;;4.38;3.50;;;;;;;30.13;36.22;96512.09;5093689;28;20024;-27
2022/07/26 08:39:19;;;;;;;5.93;4.13;;;;;;;30.36;36.08;96507.28;5093614;28;20024;-28
2022/07/26 08:41:45;;;;;;;4.10;3.70;;;;;;;30.39;35.80;96508.22;5093891;28;20504;-27
2022/07/26 08:44:11;;;;;;;4.53;4.05;;;;;;;30.39;35.78;96504.66;5093285;28;20024;-28
2022/07/26 08:46:39;;;;;;;4.68;4.28;;;;;;;30.31;35.88;96494.19;5092140;28;20020;-28
2022/07/26 08:49:06;;;;;;;4.32;3.92;;;;;;;29.96;36.42;96497.88;5093699;28;20385;-28
2022/07/26 08:51:37;;;;;;;5.30;4.22;;;;;;;30.21;35.95;96507.25;5093313;28;20462;-27
2022/07/26 08:54:03;;;;;;;6.68;4.25;;;;;;;30.26;36.32;96500.00;5093490;28;20028;-28
2022/07/26 08:56:28;;;;;;;6.10;4.47;;;;;;;30.33;36.14;96494.41;5093493;28;20481;-28
2022/07/26 08:58:54;;;;;;;4.63;3.85;;;;;;;30.19;36.24;96500.72;5093186;28;20034;-29
2022/07/26 09:01:19;;;;;;;4.25;3.85;;;;;;;30.23;36.21;96495.50;5093630;28;20054;-29
2022/07/26 09:03:45;;;;;;;7.32;3.97;;;;;;;30.37;36.12;96496.84;5093248;28;20098;-28
2022/07/26 09:06:19;;;;;;;4.65;4.25;;;;;;;30.39;36.01;96490.69;5093213;28;20023;-29
2022/07/26 09:08:47;;;;;;;4.03;3.63;;;;;;;30.33;36.05;96482.47;5093132;28;20054;-28
2022/07/26 09:11:32;;;;;;;6.68;3.80;;;;;;;30.35;35.68;96486.19;5093151;28;20045;-27
2022/07/26 09:14:03;;;;;;;6.85;3.90;;;;;;;30.07;35.47;96486.34;5093045;28;20030;-27
2022/07/26 09:16:29;;;;;;;6.72;4.50;;;;;;;30.02;36.58;96478.13;5093298;28;20024;-28
2022/07/26 09:19:14;;;;;;;6.57;4.07;;;;;;;30.31;35.92;96487.84;5093173;28;20466;-29
2022/07/26 09:21:40;;;;;;;5.47;4.28;;;;;;;30.42;35.35;96475.56;5093221;28;20027;-29
2022/07/26 09:24:06;;;;;;;5.65;4.13;;;;;;;30.40;35.66;96470.53;5093130;28;20020;-27
2022/07/26 09:26:32;;;;;;;6.22;3.95;;;;;;;30.14;35.50;96484.88;5093329;28;20047;-28
2022/07/26 09:29:04;;;;;;;6.45;4.50;;;;;;;29.58;36.11;96490.06;5092954;28;20024;-27
2022/07/26 09:31:30;;;;;;;;;;;;;;;29.71;36.52;96480.06;5093275;28;20466;-28
2022/07/26 09:33:55;;;;;;;5.10;4.25;;;;;;;30.14;35.78;96482.81;5092195;28;19954;-28
2022/07/26 09:36:21;;;;;;;5.95;4.43;;;;;;;30.25;35.58;96476.13;5091718;28;20024;-29
2022/07/26 09:38:52;;;;;;;7.45;3.70;;;;;;;30.31;35.39;96476.66;5092808;28;20027;-29
2022/07/26 09:41:36;;;;;;;7.60;4.43;;;;;;;30.29;35.35;96473.72;5093599;28;20081;-28
2022/07/26 09:44:19;;;;;;;5.65;4.60;;;;;;;30.38;34.92;96478.75;5096615;28;20527;-29
2022/07/26 09:46:55;;;;;;;4.70;4.10;;;;;;;30.33;35.30;96479.66;5096876;28;20077;-28
2022/07/26 09:49:22;;;;;;;5.07;4.57;;;;;;;30.04;35.46;96479.06;5096807;28;20064;-28
2022/07/26 09:51:50;;;;;;;4.65;3.88;;;;;;;29.95;35.24;96485.16;5096402;28;20050;-28
2022/07/26 09:54:38;;;;;;;7.07;3.83;;;;;;;29.87;34.76;96482.34;5095479;28;20024;-28
2022/07/26 09:57:03;;;;;;;4.50;4.05;;;;;;;30.18;35.04;96488.03;5096514;28;20070;-28
2022/07/26 09:59:29;;;;;;;6.30;4.43;;;;;;;30.33;35.13;96480.41;5096827;28;20024;-28
2022/07/26 10:01:57;;;;;;;8.75;4.55;;;;;;;30.27;35.23;96485.44;5096224;28;20020;-28
2022/07/26 10:04:23;;;;;;;6.57;4.43;;;;;;;30.18;35.73;96483.19;5096542;28;20025;-28
2022/07/26 10:06:48;;;;;;;5.82;4.80;;;;;;;30.29;35.33;96482.09;5096282;28;20024;-28
2022/07/26 10:09:15;;;;;;;5.55;4.43;;;;;;;30.39;34.88;96488.63;5094702;28;20510;-28
2022/07/26 10:11:46;;;;;;;5.03;4.35;;;;;;;30.25;35.35;96493.66;5096272;28;20028;-28
2022/07/26 10:14:46;;;;;;;5.72;4.15;;;;;;;30.18;35.34;96485.97;5096092;28;20024;-30
2022/07/26 10:17:27;;;;;;;7.28;4.63;;;;;;;29.99;35.34;96477.19;5096052;28;20020;-29
2022/07/26 10:19:56;;;;;;;5.25;4.55;;;;;;;30.20;34.94;96479.81;5096326;28;20032;-29
2022/07/26 10:22:25;;;;;;;7.93;5.05;;;;;;;29.97;35.18;96474.94;5096151;28;20021;-28
2022/07/26 10:24:51;;;;;;;5.20;4.28;;;;;;;30.04;35.12;96475.53;5096102;28;20024;-28
2022/07/26 10:27:39;;;;;;;6.45;4.30;;;;;;;30.12;34.96;96477.03;5095898;28;20058;-29
2022/07/26 10:30:17;;;;;;;6.35;4.20;;;;;;;30.22;34.80;96466.78;5095981;28;20024;-28
2022/07/26 10:32:59;;;;;;;6.13;4.30;;;;;;;30.23;34.97;96471.06;5095701;28;20020;-28
2022/07/26 10:35:34;;;;;;;5.97;4.40;;;;;;;30.24;34.50;96460.63;5095783;28;20027;-29
2022/07/26 10:38:11;;;;;;;5.63;4.60;;;;;;;30.31;34.37;96466.22;5095735;28;20476;-28
2022/07/26 10:40:38;;;;;;;6.95;4.68;;;;;;;30.41;34.28;96460.84;5095668;28;20047;-28
2022/07/26 10:43:16;;;;;;;5.50;4.45;;;;;;;30.42;34.45;96461.56;5095520;28;20099;-29
2022/07/26 10:45:43;;;;;;;7.05;4.70;;;;;;;30.39;34.23;96452.25;5095621;28;20035;-28
2022/07/26 10:48:21;;;;;;;5.03;4.03;;;;;;;30.38;34.20;96447.22;5095674;28;20047;-28
2022/07/26 10:50:52;;;;;;;4.68;4.28;;;;;;;30.39;34.20;96449.47;5095519;28;20052;-28
2022/07/26 10:53:17;;;;;;;5.93;4.25;;;;;;;30.36;34.46;96445.72;5095412;28;20475;-28
2022/07/26 10:55:56;;;;;;;5.47;4.15;;;;;;;30.43;34.59;96452.59;5095307;28;20102;-28
2022/07/26 10:58:24;;;;;;;5.53;4.20;;;;;;;30.33;34.62;96444.03;5095128;28;20378;-28
2022/07/26 11:01:00;;;;;;;4.95;4.43;;;;;;;30.29;34.78;96440.84;5095283;28;20095;-28
2022/07/26 11:03:41;;;;;;;5.85;4.50;;;;;;;30.34;34.38;96442.72;5095351;28;20020;-28
2022/07/26 11:06:11;;;;;;;5.03;4.18;;;;;;;30.37;34.68;96438.06;5095049;28;20073;-28
2022/07/26 11:08:37;;;;;;;4.13;3.83;;;;;;;30.42;34.04;96453.16;5095089;28;20054;-28
2022/07/26 11:11:02;;;;;;;5.63;4.28;;;;;;;30.47;34.03;96441.06;5095097;28;20051;-28
2022/07/26 11:13:31;;;;;;;5.15;4.13;;;;;;;30.43;33.82;96435.06;5094887;28;20472;-28
2022/07/26 11:16:07;;;;;;;4.97;4.18;;;;;;;30.28;33.99;96438.63;5094981;28;20100;-28
2022/07/26 11:18:37;;;;;;;6.05;4.47;;;;;;;30.39;34.30;96426.31;5095027;28;20063;-28
2022/07/26 11:21:14;;;;;;;5.13;4.72;;;;;;;30.34;33.85;96428.75;5094946;28;20436;-28
2022/07/26 11:23:45;;;;;;;7.82;4.40;;;;;;;30.28;34.29;96425.41;5094839;28;20107;-28
2022/07/26 11:26:17;;;;;;;16.42;4.45;;;;;;;30.45;33.82;96422.03;5094847;28;20044;-28
2022/07/26 11:28:47;;;;;;;;;;;;;;;30.51;34.19;96425.38;5093820;28;20080;-28
2022/07/26 11:31:13;;;;;;;6.10;4.22;;;;;;;30.47;34.24;96415.88;5094741;28;19994;-29
2022/07/26 11:33:42;;;;;;;5.85;4.75;;;;;;;30.46;34.41;96419.97;5094724;28;20024;-28